Time;durP1;ratioP1;P1;durP2;ratioP2;P2;SDS_P1;SDS_P2;PMS_P1;PMS_P2;Temp;Humidity;BMP_temperature;BMP_pressure;BME280_temperature;BME280_humidity;BME280_pressure;Samples;Min_cycle;Max_cycle;Signal;HPM_P1;HPM_P2
2020/12/24 00:01:45;;;;;;;13.10;9.47;;;;;;;7.58;87.28;95291.28;5035329;28;20446;-80
2020/12/24 00:04:11;;;;;;;11.63;8.90;;;;;;;7.58;87.35;95300.91;5035288;28;20454;-80
2020/12/24 00:06:38;;;;;;;13.33;10.23;;;;;;;7.57;86.79;95296.63;5035076;28;20486;-80
2020/12/24 00:09:04;;;;;;;14.57;9.77;;;;;;;7.59;86.57;95300.81;5035182;28;20503;-80
2020/12/24 00:11:30;;;;;;;17.43;11.63;;;;;;;7.59;86.39;95300.81;5035332;28;20943;-80
2020/12/24 00:13:57;;;;;;;21.30;12.70;;;;;;;7.56;85.86;95300.16;5035532;28;20437;-80
2020/12/24 00:16:24;;;;;;;21.97;13.10;;;;;;;7.49;85.35;95297.09;5035383;28;20500;-80
2020/12/24 00:18:50;;;;;;;22.00;12.43;;;;;;;7.45;85.66;95301.69;5035423;28;20476;-80
2020/12/24 00:21:17;;;;;;;19.67;11.40;;;;;;;7.40;86.24;95301.16;4951838;28;20447;-80
2020/12/24 00:23:43;;;;;;;18.90;11.93;;;;;;;7.37;86.28;95303.16;5034883;28;20442;-80
2020/12/24 00:26:10;;;;;;;16.50;10.77;;;;;;;7.30;85.71;95299.28;5000177;28;20482;-80
2020/12/24 00:28:36;;;;;;;15.47;10.93;;;;;;;7.29;85.83;95301.03;5035141;28;20450;-80
2020/12/24 00:31:02;;;;;;;14.83;9.90;;;;;;;7.20;86.41;95291.19;5034950;28;20449;-80
2020/12/24 00:33:30;;;;;;;17.87;10.97;;;;;;;7.19;86.48;95299.94;5035110;28;20968;-80
2020/12/24 00:35:56;;;;;;;14.10;9.73;;;;;;;7.18;86.51;95300.06;5034759;28;20450;-80
2020/12/24 00:38:22;;;;;;;15.20;10.23;;;;;;;7.14;85.89;95294.19;5034660;28;20446;-80
2020/12/24 00:40:49;;;;;;;16.00;10.27;;;;;;;7.12;86.09;95301.28;5034808;28;20454;-81
2020/12/24 00:43:15;;;;;;;18.10;9.90;;;;;;;7.11;86.56;95303.06;5034770;28;20454;-81
2020/12/24 00:45:41;;;;;;;13.60;9.30;;;;;;;7.04;86.25;95299.19;4999925;28;20826;-80
2020/12/24 00:48:08;;;;;;;14.93;8.80;;;;;;;6.98;86.72;95296.13;4999981;28;20446;-81
2020/12/24 00:50:35;;;;;;;13.90;9.90;;;;;;;6.94;87.28;95290.28;5034814;28;20471;-80
2020/12/24 00:53:01;;;;;;;13.70;9.17;;;;;;;6.91;87.47;95289.63;5034575;28;20446;-80
2020/12/24 00:55:27;;;;;;;12.73;9.63;;;;;;;6.88;87.08;95284.59;5034580;28;20801;-80
2020/12/24 00:57:54;;;;;;;13.00;8.43;;;;;;;6.87;87.77;95277.72;5034529;28;20445;-80
2020/12/24 01:00:20;;;;;;;13.17;8.70;;;;;;;6.85;87.56;95285.63;5034516;28;20492;-80
2020/12/24 01:02:47;;;;;;;12.83;8.83;;;;;;;6.84;88.26;95284.81;5034615;28;20452;-80
2020/12/24 01:05:13;;;;;;;10.07;7.47;;;;;;;6.84;88.14;95281.34;5033652;28;20486;-80
2020/12/24 01:07:41;;;;;;;11.80;9.00;;;;;;;6.90;87.71;95287.94;5034210;28;20828;-80
2020/12/24 01:10:08;;;;;;;10.77;8.30;;;;;;;6.88;88.08;95284.59;5034286;28;20442;-80
2020/12/24 01:12:35;;;;;;;11.13;8.67;;;;;;;6.89;87.31;95284.50;5034286;28;20450;-80
2020/12/24 01:15:01;;;;;;;13.50;8.43;;;;;;;6.89;87.30;95286.28;5034255;28;20796;-80
2020/12/24 01:17:28;;;;;;;12.67;8.33;;;;;;;6.88;86.88;95279.38;5034032;28;20446;-80
2020/12/24 01:19:54;;;;;;;11.50;8.37;;;;;;;6.83;86.99;95271.84;5034087;28;20446;-80
2020/12/24 01:22:20;;;;;;;14.63;9.37;;;;;;;6.89;87.88;95281.06;5034042;28;20454;-81
2020/12/24 01:24:48;;;;;;;13.00;10.20;;;;;;;6.91;87.60;95279.19;5034108;28;20941;-80
2020/12/24 01:27:14;;;;;;;13.60;8.97;;;;;;;6.92;87.52;95275.63;5034015;28;20446;-80
2020/12/24 01:29:40;;;;;;;15.03;9.23;;;;;;;6.91;87.31;95271.34;5033859;28;20446;-81
2020/12/24 01:32:07;;;;;;;11.60;8.83;;;;;;;6.94;87.75;95274.63;5033807;28;20965;-81
2020/12/24 01:34:33;;;;;;;18.20;9.90;;;;;;;6.95;86.93;95272.88;5033837;28;20818;-80
2020/12/24 01:37:01;;;;;;;22.03;9.57;;;;;;;6.94;87.43;95273.75;5015496;28;20996;-80
2020/12/24 01:39:28;;;;;;;12.67;9.40;;;;;;;6.91;87.31;95263.53;5033648;28;20485;-80
2020/12/24 01:41:55;;;;;;;16.27;9.83;;;;;;;6.86;86.83;95265.59;5033764;28;20461;-80
2020/12/24 01:44:22;;;;;;;14.20;8.23;;;;;;;6.77;87.44;95260.06;5033748;28;20446;-80
2020/12/24 01:46:49;;;;;;;14.30;8.87;;;;;;;6.69;87.82;95251.88;5033455;28;20519;-80
2020/12/24 01:49:16;;;;;;;11.80;7.77;;;;;;;6.67;88.70;95245.94;5033321;28;20492;-80
2020/12/24 01:51:49;;;;;;;13.27;8.93;;;;;;;6.65;88.68;95245.19;5033640;28;20957;-80
2020/12/24 01:54:17;;;;;;;12.97;10.50;;;;;;;6.60;88.30;95242.03;5033624;28;20450;-80
2020/12/24 01:56:43;;;;;;;12.83;8.60;;;;;;;6.66;88.39;95246.88;5033348;28;20458;-80
2020/12/24 01:59:14;;;;;;;14.43;9.70;;;;;;;6.68;88.03;95242.41;5033389;28;20442;-80
2020/12/24 02:01:41;;;;;;;14.07;7.97;;;;;;;6.70;87.79;95240.53;5033465;28;20525;-80
2020/12/24 02:04:10;;;;;;;15.73;8.53;;;;;;;6.73;88.09;95240.31;5033485;28;20476;-80
2020/12/24 02:06:36;;;;;;;14.30;10.40;;;;;;;6.72;87.46;95245.63;5033435;28;20490;-80
2020/12/24 02:09:03;;;;;;;16.90;9.90;;;;;;;6.72;87.21;95249.09;5033068;28;20454;-80
2020/12/24 02:11:29;;;;;;;16.40;8.40;;;;;;;6.68;87.52;95238.94;5033188;28;20789;-80
2020/12/24 02:13:56;;;;;;;13.90;8.23;;;;;;;6.67;87.87;95243.34;5032751;28;20445;-80
2020/12/24 02:16:23;;;;;;;12.73;9.07;;;;;;;6.67;87.53;95237.28;5033063;28;20515;-80
2020/12/24 02:18:49;;;;;;;13.63;8.10;;;;;;;6.67;87.58;95245.09;5033091;28;20457;-80
2020/12/24 02:21:17;;;;;;;11.27;8.07;;;;;;;6.73;87.54;95249.91;5032881;28;20449;-80
2020/12/24 02:23:43;;;;;;;12.20;8.30;;;;;;;6.72;87.33;95238.66;5033019;28;20501;-80
2020/12/24 02:26:09;;;;;;;10.60;7.63;;;;;;;6.72;87.16;95243.88;5033134;28;20482;-80
2020/12/24 02:28:36;;;;;;;13.20;7.90;;;;;;;6.69;87.30;95251.88;5033386;28;20942;-80
2020/12/24 02:31:03;;;;;;;13.67;8.03;;;;;;;6.65;86.78;95244.34;5032680;28;20464;-80
2020/12/24 02:33:29;;;;;;;10.97;8.27;;;;;;;6.64;87.18;95238.28;5032778;28;20494;-80
2020/12/24 02:35:56;;;;;;;10.80;8.00;;;;;;;6.63;87.56;95230.56;5032634;28;20521;-80
2020/12/24 02:38:23;;;;;;;11.47;8.27;;;;;;;6.63;87.13;95233.16;5032799;28;20819;-80
2020/12/24 02:40:49;;;;;;;15.50;8.20;;;;;;;6.59;87.31;95231.69;5032780;28;20450;-81
2020/12/24 02:43:16;;;;;;;14.20;8.77;;;;;;;6.62;87.27;95228.88;5032749;28;20431;-80
2020/12/24 02:45:42;;;;;;;11.20;8.13;;;;;;;6.60;87.92;95228.16;5032081;28;20488;-80
2020/12/24 02:48:09;;;;;;;13.47;8.33;;;;;;;6.59;88.12;95224.72;5032790;28;20450;-80
2020/12/24 02:50:35;;;;;;;14.20;9.00;;;;;;;6.52;87.55;95223.44;5032544;28;20446;-80
2020/12/24 02:53:01;;;;;;;11.07;9.10;;;;;;;6.46;88.29;95224.66;5032611;28;20445;-80
2020/12/24 02:55:29;;;;;;;14.83;10.33;;;;;;;6.44;88.56;95228.31;5032702;28;20466;-80
2020/12/24 02:57:55;;;;;;;10.80;7.90;;;;;;;6.46;88.29;95221.22;5032267;28;20457;-80
2020/12/24 03:00:21;;;;;;;11.43;8.10;;;;;;;6.46;88.65;95221.22;5032434;28;20446;-80
2020/12/24 03:02:48;;;;;;;11.03;7.40;;;;;;;6.43;88.44;95219.66;4997322;28;20430;-80
2020/12/24 03:05:14;;;;;;;14.07;8.17;;;;;;;6.39;87.99;95210.34;5032110;28;21008;-80
2020/12/24 03:07:41;;;;;;;11.20;7.10;;;;;;;6.36;88.69;95207.94;5032697;28;20454;-80
2020/12/24 03:10:07;;;;;;;10.00;7.57;;;;;;;6.35;88.46;95215.84;5032402;28;20435;-80
2020/12/24 03:12:35;;;;;;;10.40;8.03;;;;;;;6.33;88.84;95215.09;5032341;28;20529;-80
2020/12/24 03:15:01;;;;;;;13.83;7.63;;;;;;;6.24;88.36;95215.69;5032463;28;20450;-80
2020/12/24 03:17:27;;;;;;;11.10;7.93;;;;;;;6.24;89.35;95213.91;5013721;28;20458;-80
2020/12/24 03:19:54;;;;;;;14.77;8.93;;;;;;;6.25;88.76;95212.13;5013874;28;20449;-80
2020/12/24 03:22:20;;;;;;;11.70;7.63;;;;;;;6.22;88.90;95206.19;5032778;28;20926;-80
2020/12/24 03:24:46;;;;;;;11.63;8.83;;;;;;;6.22;89.12;95208.81;5032619;28;20937;-80
2020/12/24 03:27:13;;;;;;;13.23;8.77;;;;;;;6.24;89.03;95202.66;4965124;28;20486;-80
2020/12/24 03:29:40;;;;;;;10.73;7.53;;;;;;;6.27;89.01;95210.28;5036108;28;20450;-80
2020/12/24 03:32:06;;;;;;;11.50;7.63;;;;;;;6.28;88.38;95211.94;5036387;28;20442;-80
2020/12/24 03:34:33;;;;;;;9.20;6.30;;;;;;;6.30;88.60;95215.28;5001483;28;20457;-80
2020/12/24 03:36:59;;;;;;;11.03;6.90;;;;;;;6.29;88.82;95213.63;5035900;28;20956;-80
2020/12/24 03:39:25;;;;;;;9.70;6.73;;;;;;;6.32;89.01;95208.22;5035872;28;20445;-80
2020/12/24 03:41:52;;;;;;;21.43;9.10;;;;;;;6.38;88.11;95213.91;5035910;28;20442;-80
2020/12/24 03:44:18;;;;;;;15.83;7.73;;;;;;;6.43;89.03;95211.00;5035699;28;20487;-80
2020/12/24 03:46:46;;;;;;;8.10;7.30;;;;;;;6.44;88.47;95215.28;5035711;28;20512;-80
2020/12/24 03:49:13;;;;;;;11.07;8.87;;;;;;;6.43;87.89;95218.81;5035754;28;20446;-80
2020/12/24 03:51:39;;;;;;;9.50;6.30;;;;;;;6.44;88.27;95216.09;5035670;28;20442;-80
2020/12/24 03:54:05;;;;;;;8.10;6.57;;;;;;;6.41;87.82;95212.88;5035446;28;20453;-80
2020/12/24 03:56:32;;;;;;;9.80;6.23;;;;;;;6.42;87.75;95210.16;5035834;28;20446;-80
2020/12/24 03:58:58;;;;;;;13.50;7.57;;;;;;;6.36;87.10;95214.91;5035766;28;20446;-80
2020/12/24 04:01:25;;;;;;;13.37;6.60;;;;;;;6.36;86.85;95225.31;5035470;28;20457;-80
2020/12/24 04:03:52;;;;;;;10.97;7.47;;;;;;;6.30;87.35;95216.13;5035482;28;20529;-80
2020/12/24 04:06:19;;;;;;;13.40;7.50;;;;;;;6.30;86.78;95223.94;5035241;28;20880;-80
2020/12/24 04:08:45;;;;;;;10.03;7.40;;;;;;;6.30;86.78;95225.72;5035641;28;20865;-80
2020/12/24 04:11:11;;;;;;;11.20;7.77;;;;;;;6.23;86.70;95227.88;5035151;28;20945;-80
2020/12/24 04:13:37;;;;;;;12.43;7.00;;;;;;;6.20;87.48;95228.91;5035439;28;20820;-80
2020/12/24 04:16:04;;;;;;;10.57;6.93;;;;;;;6.17;87.27;95218.69;5035338;28;20454;-80
2020/12/24 04:18:30;;;;;;;10.83;6.90;;;;;;;6.17;87.40;95223.88;5035214;28;20474;-80
2020/12/24 04:20:58;;;;;;;8.10;6.20;;;;;;;6.19;88.17;95223.78;4968261;28;20445;-80
2020/12/24 04:23:24;;;;;;;8.43;7.40;;;;;;;6.18;87.79;95228.16;5035149;28;20465;-80
2020/12/24 04:25:51;;;;;;;8.80;7.13;;;;;;;6.19;87.65;95224.63;5035342;28;20482;-80
2020/12/24 04:28:17;;;;;;;7.97;5.83;;;;;;;6.15;87.13;95227.53;5035942;28;20446;-79
2020/12/24 04:30:43;;;;;;;8.80;7.40;;;;;;;6.13;88.04;95219.81;5035065;28;20442;-80
2020/12/24 04:33:10;;;;;;;8.17;6.90;;;;;;;6.10;88.19;95217.41;5035545;28;20442;-80
2020/12/24 04:35:36;;;;;;;10.53;7.57;;;;;;;6.09;88.31;95220.94;5034869;28;20478;-80
2020/12/24 04:38:04;;;;;;;9.37;6.90;;;;;;;6.09;88.05;95212.28;5035032;28;20442;-80
2020/12/24 04:40:30;;;;;;;10.93;7.37;;;;;;;6.13;88.23;95216.38;5033641;28;20811;-80
2020/12/24 04:42:57;;;;;;;9.07;6.53;;;;;;;6.12;88.14;95209.47;5034578;28;20454;-80
2020/12/24 04:45:25;;;;;;;9.50;6.63;;;;;;;6.13;88.13;95217.19;5034533;28;20474;-80
2020/12/24 04:47:56;;;;;;;9.30;7.10;;;;;;;6.13;87.87;95213.75;5034668;28;20516;-80
2020/12/24 04:50:26;;;;;;;10.40;7.40;;;;;;;6.14;88.05;95215.44;5034519;28;20537;-80
2020/12/24 04:52:54;;;;;;;10.63;8.87;;;;;;;6.11;88.59;95203.44;5035100;28;20792;-80
2020/12/24 04:55:21;;;;;;;12.90;7.70;;;;;;;6.13;88.75;95209.38;5034594;28;20477;-80
2020/12/24 04:57:49;;;;;;;12.30;7.63;;;;;;;6.14;88.33;95213.66;5034637;28;20442;-80
2020/12/24 05:00:16;;;;;;;9.17;7.23;;;;;;;6.13;88.34;95203.34;5034633;28;20441;-80
2020/12/24 05:02:42;;;;;;;8.60;7.40;;;;;;;6.15;88.93;95204.06;5034395;28;20451;-80
2020/12/24 05:05:08;;;;;;;9.40;6.63;;;;;;;6.10;88.57;95199.16;5034071;28;20454;-80
2020/12/24 05:07:35;;;;;;;10.70;7.80;;;;;;;6.18;88.86;95207.31;5034449;28;20455;-80
2020/12/24 05:10:01;;;;;;;8.20;7.00;;;;;;;6.18;88.50;95203.88;5034403;28;20450;-80
2020/12/24 05:12:30;;;;;;;11.17;7.53;;;;;;;6.17;88.51;95205.66;5034126;28;20438;-80
2020/12/24 05:14:56;;;;;;;11.20;6.70;;;;;;;6.18;88.12;95212.53;5034016;28;21024;-80
2020/12/24 05:17:24;;;;;;;10.80;7.80;;;;;;;6.20;87.91;95212.44;5033929;28;20481;-80
2020/12/24 05:20:00;;;;;;;11.40;7.40;;;;;;;6.21;87.46;95203.69;5034150;28;20938;-79
2020/12/24 05:22:28;;;;;;;9.67;7.57;;;;;;;6.20;88.14;95204.63;5033823;28;21004;-80
2020/12/24 05:25:06;;;;;;;10.67;7.83;;;;;;;6.20;87.63;95202.84;5034186;28;20458;-81
2020/12/24 05:27:33;;;;;;;11.17;8.73;;;;;;;6.20;87.66;95205.47;5033646;28;20453;-80
2020/12/24 05:29:59;;;;;;;11.83;7.43;;;;;;;6.20;87.74;95208.06;5033571;28;20442;-80
2020/12/24 05:32:27;;;;;;;14.07;8.40;;;;;;;6.22;88.05;95210.56;5033941;28;20457;-80
2020/12/24 05:35:08;;;;;;;11.57;8.17;;;;;;;6.21;87.59;95208.91;5033518;28;20793;-80
2020/12/24 05:37:34;;;;;;;16.97;10.17;;;;;;;6.20;87.96;95209.84;5033543;28;20446;-81
2020/12/24 05:40:18;;;;;;;21.27;12.67;;;;;;;6.21;87.80;95207.13;5033594;28;20446;-80
2020/12/24 05:42:50;;;;;;;14.80;10.10;;;;;;;6.18;87.81;95202.09;5033607;28;20446;-82
2020/12/24 05:45:17;;;;;;;12.87;10.27;;;;;;;6.21;87.33;95207.13;5033803;28;20500;-81
2020/12/24 05:47:44;;;;;;;12.57;9.10;;;;;;;6.19;87.04;95198.56;5033453;28;20446;-81
2020/12/24 05:50:25;;;;;;;15.27;9.97;;;;;;;6.18;86.77;95196.91;5033713;28;20450;-81
2020/12/24 05:53:09;;;;;;;14.87;8.10;;;;;;;6.15;87.76;95191.88;4992241;28;20452;-85
2020/12/24 05:55:36;;;;;;;14.53;10.77;;;;;;;6.13;88.47;95193.75;4992008;28;20472;-84
2020/12/24 05:58:04;;;;;;;12.20;10.10;;;;;;;6.11;87.84;95190.41;4991958;28;20452;-84
2020/12/24 06:00:36;;;;;;;14.57;10.27;;;;;;;6.16;89.11;95198.78;4992085;28;20482;-80
2020/12/24 06:03:20;;;;;;;22.60;11.80;;;;;;;6.10;87.81;95188.75;4991650;28;20499;-80
2020/12/24 06:05:58;;;;;;;15.50;10.40;;;;;;;6.07;87.56;95183.72;4959110;28;20534;-80
2020/12/24 06:08:29;;;;;;;14.00;10.50;;;;;;;6.07;88.18;95183.72;4991932;28;20466;-80
2020/12/24 06:11:04;;;;;;;12.53;9.23;;;;;;;6.07;87.80;95177.63;4991509;28;20440;-80
2020/12/24 06:13:42;;;;;;;17.50;10.40;;;;;;;6.10;88.42;95183.53;4991685;28;21063;-80
2020/12/24 06:16:10;;;;;;;17.40;11.87;;;;;;;6.08;88.39;95184.56;4991662;28;20466;-80
2020/12/24 06:18:38;;;;;;;15.40;9.93;;;;;;;6.11;88.76;95176.53;4991676;28;20960;-80
2020/12/24 06:21:13;;;;;;;15.90;10.43;;;;;;;6.11;89.10;95189.56;4991466;28;20440;-81
2020/12/24 06:23:44;;;;;;;16.77;11.40;;;;;;;6.13;88.94;95190.31;4958972;28;20443;-80
2020/12/24 06:26:12;;;;;;;16.30;10.30;;;;;;;6.18;88.46;95190.84;4991331;28;20479;-80
2020/12/24 06:28:43;;;;;;;20.57;10.07;;;;;;;6.24;88.74;95192.22;4991518;28;20510;-82
2020/12/24 06:31:11;;;;;;;16.93;10.90;;;;;;;6.28;88.18;95184.13;5030744;28;20456;-80
2020/12/24 06:33:38;;;;;;;17.13;9.87;;;;;;;6.28;87.70;95191.09;5033535;28;20446;-81
2020/12/24 06:36:04;;;;;;;10.60;8.20;;;;;;;6.25;87.98;95191.28;5032757;28;21003;-80
2020/12/24 06:38:45;;;;;;;12.07;9.93;;;;;;;6.26;87.85;95198.19;5033214;28;20453;-80
2020/12/24 06:41:27;;;;;;;68.40;34.67;;;;;;;6.30;88.16;95187.47;5033280;28;20454;-80
2020/12/24 06:43:54;;;;;;;36.93;19.97;;;;;;;6.34;87.43;95190.69;5033471;28;20862;-82
2020/12/24 06:46:21;;;;;;;39.97;19.77;;;;;;;6.37;87.25;95200.97;5032793;28;20478;-80
2020/12/24 06:49:05;;;;;;;73.47;39.53;;;;;;;9.41;100.00;95204.22;5032769;28;20950;-82
2020/12/24 06:51:51;;;;;;;37.23;25.20;;;;;;;9.09;100.00;95199.59;5033527;28;20447;-84
2020/12/24 06:54:22;;;;;;;18.53;13.33;;;;;;;8.65;93.31;95201.06;5033221;28;20943;-81
2020/12/24 06:56:48;;;;;;;18.70;12.30;;;;;;;8.43;84.61;95211.41;5033412;28;20459;-84
2020/12/24 06:59:22;;;;;;;20.37;14.40;;;;;;;8.34;82.87;95219.88;5032518;28;20558;-81
2020/12/24 07:02:03;;;;;;;21.20;14.73;;;;;;;8.26;81.93;95209.09;5032921;28;20447;-85
2020/12/24 07:04:36;;;;;;;18.30;13.77;;;;;;;8.17;82.30;95215.84;5036668;28;20477;-88
2020/12/24 07:07:03;;;;;;;14.50;11.70;;;;;;;8.07;82.66;95212.16;5001868;28;20483;-79
2020/12/24 07:09:44;;;;;;;14.97;10.97;;;;;;;7.99;82.77;95214.50;5036500;28;20473;-86
2020/12/24 07:12:31;;;;;;;15.77;10.00;;;;;;;7.91;83.80;95207.19;5036906;28;20522;-84
2020/12/24 07:15:22;;;;;;;37.00;15.73;;;;;;;7.91;83.92;95215.03;5036492;28;20447;-81
2020/12/24 07:17:54;;;;;;;31.13;20.60;;;;;;;7.76;84.26;95216.06;5037470;28;20461;-83
2020/12/24 07:20:20;;;;;;;58.60;37.00;;;;;;;7.60;84.49;95224.13;5037915;28;20915;-84
2020/12/24 07:22:47;;;;;;;71.87;43.53;;;;;;;7.50;84.49;95207.38;5002290;28;20442;-84
2020/12/24 07:25:13;;;;;;;79.03;49.33;;;;;;;7.51;85.86;95211.66;5037169;28;20457;-80
2020/12/24 07:27:48;;;;;;;91.70;50.20;;;;;;;7.48;86.56;95219.72;5001723;28;20977;-81
2020/12/24 07:30:17;;;;;;;110.93;55.00;;;;;;;7.54;90.69;95206.28;5036732;28;20784;-81
2020/12/24 07:32:54;;;;;;;128.57;58.23;;;;;;;7.66;89.94;95212.41;5036549;28;20449;-82
2020/12/24 07:35:21;;;;;;;61.37;33.70;;;;;;;7.76;88.75;95192.56;5036174;28;20438;-82
2020/12/24 07:37:49;;;;;;;72.83;36.23;;;;;;;7.85;88.28;95202.38;5036371;28;20443;-83
2020/12/24 07:40:15;;;;;;;69.07;36.83;;;;;;;7.98;88.04;95197.97;5035857;28;20486;-81
2020/12/24 07:42:42;;;;;;;45.30;27.73;;;;;;;8.04;90.90;95181.84;5036264;28;20448;-82
2020/12/24 07:45:10;;;;;;;30.00;19.10;;;;;;;8.01;89.02;95192.53;5035764;28;20488;-82
2020/12/24 07:47:44;;;;;;;25.90;17.90;;;;;;;8.02;88.05;95190.75;5022854;28;20574;-83
2020/12/24 07:50:11;;;;;;;32.73;19.60;;;;;;;8.01;86.91;95192.53;5037419;28;20438;-83
2020/12/24 07:52:37;;;;;;;33.50;18.77;;;;;;;8.01;86.30;95200.38;5039129;28;20446;-82
2020/12/24 07:55:11;;;;;;;27.90;17.97;;;;;;;7.93;85.97;95192.25;5037506;28;20491;-84
2020/12/24 07:57:38;;;;;;;35.27;23.37;;;;;;;7.86;86.22;95188.38;5036468;28;20451;-85
2020/12/24 08:00:05;;;;;;;27.87;18.00;;;;;;;7.89;86.47;95190.78;5036044;28;20455;-85
2020/12/24 08:02:32;;;;;;;21.10;17.33;;;;;;;7.87;86.89;95195.28;5036765;28;20497;-83
2020/12/24 08:05:00;;;;;;;32.47;21.70;;;;;;;7.66;87.69;95196.75;5035968;28;20469;-85
2020/12/24 08:07:26;;;;;;;38.28;25.15;;;;;;;7.73;88.42;95187.53;5035533;28;20436;-83
2020/12/24 08:09:53;;;;;;;31.97;21.67;;;;;;;7.62;89.26;95197.91;5025205;28;20658;-86
2020/12/24 08:12:23;;;;;;;37.77;22.70;;;;;;;7.60;89.52;95194.56;5015218;28;20542;-85
2020/12/24 08:14:51;;;;;;;46.47;26.10;;;;;;;7.64;90.01;95196.03;5016652;28;20447;-84
2020/12/24 08:17:26;;;;;;;59.23;32.93;;;;;;;7.50;90.56;95193.50;5035778;28;20463;-84
2020/12/24 08:20:00;;;;;;;59.30;35.17;;;;;;;7.51;91.30;95200.41;5034980;28;20446;-82
2020/12/24 08:22:47;;;;;;;43.07;28.33;;;;;;;7.43;91.52;95196.53;5035329;28;20458;-86
2020/12/24 08:25:15;;;;;;;48.40;30.90;;;;;;;7.52;91.98;95207.28;5035213;28;20445;-82
2020/12/24 08:27:42;;;;;;;52.97;31.70;;;;;;;7.58;91.95;95206.91;5036042;28;20478;-83
2020/12/24 08:30:09;;;;;;;40.40;26.13;;;;;;;7.68;91.99;95198.31;5036419;28;20920;-85
2020/12/24 08:32:38;;;;;;;43.20;26.63;;;;;;;7.58;92.11;95205.13;5035862;28;20450;-80
2020/12/24 08:35:11;;;;;;;45.47;25.47;;;;;;;7.65;92.07;95210.75;5036374;28;20454;-82
2020/12/24 08:37:39;;;;;;;37.80;27.03;;;;;;;7.67;92.81;95203.66;5037159;28;20434;-81
2020/12/24 08:40:19;;;;;;;38.73;25.77;;;;;;;7.80;92.86;95196.63;5034958;28;20822;-80
2020/12/24 08:42:47;;;;;;;35.17;22.47;;;;;;;7.73;92.70;95196.22;5035114;28;20446;-80
2020/12/24 08:45:13;;;;;;;40.60;23.80;;;;;;;7.70;92.72;95204.25;5034974;28;20803;-81
2020/12/24 08:47:40;;;;;;;36.03;23.33;;;;;;;7.72;93.41;95191.09;5039266;28;20482;-79
2020/12/24 08:50:06;;;;;;;34.70;23.20;;;;;;;7.68;94.20;95190.47;5044331;28;20450;-80
2020/12/24 08:52:37;;;;;;;36.10;23.20;;;;;;;7.84;93.89;95195.50;5050555;28;20477;-83
2020/12/24 08:55:06;;;;;;;38.10;23.37;;;;;;;7.84;93.99;95192.88;5041403;28;20506;-80
2020/12/24 08:57:32;;;;;;;46.97;23.60;;;;;;;7.96;93.40;95176.34;5034297;28;20454;-80
2020/12/24 09:00:00;;;;;;;39.20;24.60;;;;;;;8.04;94.74;95178.41;5033916;28;20447;-80
2020/12/24 09:02:28;;;;;;;44.77;23.37;;;;;;;8.07;93.98;95168.56;5035662;28;20954;-78
2020/12/24 09:04:55;;;;;;;36.63;24.30;;;;;;;8.20;93.26;95160.72;5034349;28;20943;-80
2020/12/24 09:07:26;;;;;;;43.90;29.10;;;;;;;8.43;94.34;95155.66;5012940;28;20547;-81
2020/12/24 09:10:08;;;;;;;62.00;37.67;;;;;;;8.62;92.46;95150.75;5022306;28;20449;-83
2020/12/24 09:12:35;;;;;;;50.90;27.87;;;;;;;8.78;91.86;95153.91;5030232;28;20475;-82
2020/12/24 09:15:04;;;;;;;49.90;27.57;;;;;;;8.90;90.92;95145.16;5035520;28;20460;-83
2020/12/24 09:17:31;;;;;;;48.83;27.57;;;;;;;8.86;90.36;95145.50;5034395;28;20455;-82
2020/12/24 09:20:11;;;;;;;50.27;29.87;;;;;;;8.86;90.88;95137.66;5016039;28;20538;-82
2020/12/24 09:22:48;;;;;;;43.97;29.63;;;;;;;8.93;90.47;95129.22;5014236;28;20435;-80
2020/12/24 09:25:29;;;;;;;43.77;28.50;;;;;;;8.90;90.64;95126.00;4995139;28;20444;-81
2020/12/24 09:27:55;;;;;;;39.93;25.70;;;;;;;8.79;91.60;95132.03;5014332;28;20456;-79
2020/12/24 09:30:22;;;;;;;38.73;23.87;;;;;;;8.80;91.27;95118.00;5014635;28;20859;-89
2020/12/24 09:32:54;;;;;;;39.37;22.70;;;;;;;8.51;91.31;95116.72;5016277;28;20449;-85
2020/12/24 09:35:21;;;;;;;33.03;22.90;;;;;;;8.29;93.90;95114.78;5015916;28;20448;-84
2020/12/24 09:37:47;;;;;;;34.17;22.63;;;;;;;8.35;94.31;95098.66;5015448;28;20452;-85
2020/12/24 09:40:14;;;;;;;56.20;26.77;;;;;;;8.53;93.91;95099.94;5016133;28;21015;-83
2020/12/24 09:42:41;;;;;;;42.23;25.40;;;;;;;9.22;99.22;95087.75;5016374;28;20965;-84
2020/12/24 09:45:07;;;;;;;35.60;24.27;;;;;;;9.11;97.94;95111.31;5032148;28;20469;-84
2020/12/24 09:47:34;;;;;;;46.27;27.27;;;;;;;9.08;92.83;95106.31;5014508;28;20484;-87
2020/12/24 09:50:00;;;;;;;38.13;24.37;;;;;;;8.87;92.60;95106.13;5034617;28;20464;-82
2020/12/24 09:52:26;;;;;;;44.53;25.50;;;;;;;9.02;92.42;95098.94;5034209;28;20447;-80
2020/12/24 09:54:53;;;;;;;47.10;25.20;;;;;;;9.20;91.94;95092.28;5034478;28;20488;-81
2020/12/24 09:57:19;;;;;;;43.37;24.17;;;;;;;9.30;91.86;95088.03;5034666;28;20451;-81
2020/12/24 09:59:47;;;;;;;39.83;26.33;;;;;;;9.40;91.25;95076.84;5035230;28;20453;-82
2020/12/24 10:02:13;;;;;;;45.77;26.37;;;;;;;9.46;89.44;95081.59;5034672;28;20453;-81
2020/12/24 10:04:39;;;;;;;52.93;31.57;;;;;;;9.57;90.03;95076.38;5016847;28;20441;-82
2020/12/24 10:07:06;;;;;;;58.37;32.20;;;;;;;9.49;89.53;95065.63;5034013;28;20558;-85
2020/12/24 10:09:32;;;;;;;41.07;29.27;;;;;;;9.50;88.74;95068.13;5034872;28;20517;-83
2020/12/24 10:11:59;;;;;;;45.57;29.20;;;;;;;9.45;89.75;95064.22;5033619;28;20536;-83
2020/12/24 10:14:25;;;;;;;41.00;26.77;;;;;;;9.68;89.99;95070.28;5033916;28;20461;-84
2020/12/24 10:16:53;;;;;;;45.40;28.17;;;;;;;9.77;88.92;95059.91;5034127;28;20626;-84
2020/12/24 10:19:19;;;;;;;40.30;24.70;;;;;;;9.83;87.81;95054.22;5034865;28;20444;-84
2020/12/24 10:21:45;;;;;;;32.93;22.03;;;;;;;9.87;87.32;95050.38;5033853;28;20460;-83
2020/12/24 10:24:12;;;;;;;35.53;23.97;;;;;;;9.90;87.56;95044.06;5034321;28;20449;-83
2020/12/24 10:26:39;;;;;;;32.17;22.20;;;;;;;9.91;87.49;95041.31;5034452;28;20538;-85
2020/12/24 10:29:05;;;;;;;33.90;24.40;;;;;;;10.05;87.63;95039.38;5038266;28;20477;-86
2020/12/24 10:31:32;;;;;;;31.23;21.47;;;;;;;10.10;87.24;95031.97;5035098;28;20996;-86
2020/12/24 10:33:59;;;;;;;35.63;21.90;;;;;;;10.26;87.41;95031.59;5035301;28;20458;-87
2020/12/24 10:36:26;;;;;;;39.73;20.77;;;;;;;10.30;86.81;95023.34;5035088;28;20456;-86
2020/12/24 10:38:52;;;;;;;35.87;22.60;;;;;;;10.46;86.79;95025.56;5043069;28;20461;-89
2020/12/24 10:41:19;;;;;;;30.70;19.67;;;;;;;10.54;85.76;95023.97;5034675;28;20437;-87
2020/12/24 10:43:46;;;;;;;39.27;25.03;;;;;;;10.57;85.90;95015.00;5039394;28;20882;-88
2020/12/24 10:46:21;;;;;;;36.20;22.30;;;;;;;10.71;85.56;95013.88;5039608;28;20871;-87
2020/12/24 10:48:48;;;;;;;31.70;21.73;;;;;;;11.41;100.00;94994.75;5036785;28;20499;-84
2020/12/24 10:51:15;;;;;;;39.13;25.00;;;;;;;11.83;93.77;95010.41;5034409;28;20453;-88
2020/12/24 10:53:42;;;;;;;33.73;20.43;;;;;;;11.48;84.49;95011.66;5036341;28;20523;-86
2020/12/24 10:59:08;;;;;;;41.53;23.43;;;;;;;11.31;82.07;95002.59;5241536;23;20494;-80
2020/12/24 11:01:34;;;;;;;35.40;22.23;;;;;;;11.30;81.35;94994.84;5014580;28;20442;-80
2020/12/24 11:04:03;;;;;;;34.53;21.50;;;;;;;11.36;82.11;94992.53;5014077;28;20943;-81
2020/12/24 11:06:33;;;;;;;35.77;22.63;;;;;;;11.37;81.60;94983.69;5013056;28;20484;-81
2020/12/24 11:09:00;;;;;;;30.83;21.30;;;;;;;11.24;81.18;94983.06;5014116;28;20439;-82
2020/12/24 11:11:26;;;;;;;45.90;21.90;;;;;;;11.30;81.88;94984.34;5014124;28;20454;-82
2020/12/24 11:13:53;;;;;;;31.97;21.30;;;;;;;11.31;81.46;94980.75;5013380;28;20812;-80
2020/12/24 11:16:23;;;;;;;42.80;25.43;;;;;;;11.24;83.60;94983.06;5014524;28;20975;-81
2020/12/24 11:18:50;;;;;;;37.37;25.23;;;;;;;11.34;82.75;94972.59;5017957;28;20436;-81
2020/12/24 11:21:16;;;;;;;36.33;23.30;;;;;;;11.43;82.34;94969.19;5014189;28;20457;-81
2020/12/24 11:23:43;;;;;;;37.20;21.80;;;;;;;11.44;81.71;94966.41;5012962;28;20458;-81
2020/12/24 11:26:10;;;;;;;37.27;21.40;;;;;;;11.54;81.35;94955.09;5014146;28;20479;-81
2020/12/24 11:28:36;;;;;;;39.00;23.83;;;;;;;11.63;80.62;94956.94;5014678;28;20450;-87
2020/12/24 11:31:03;;;;;;;31.40;22.03;;;;;;;11.66;80.96;94954.88;5015007;28;20469;-87
2020/12/24 11:33:30;;;;;;;37.23;23.20;;;;;;;11.72;80.52;94954.31;5013310;28;20454;-85
2020/12/24 11:35:56;;;;;;;41.90;24.93;;;;;;;11.82;79.34;94946.47;5012289;28;20443;-83
2020/12/24 11:38:23;;;;;;;40.07;25.10;;;;;;;11.91;79.06;94948.28;5016424;28;20447;-81